createdAt,value
2017-09-18T00:02:02.136Z,4.70
2017-09-18T00:04:30.400Z,8.73
2017-09-18T00:06:57.937Z,4.63
2017-09-18T00:09:25.427Z,2.90
2017-09-18T00:11:53.676Z,4.23
2017-09-18T00:14:21.240Z,5.60
2017-09-18T00:16:49.129Z,4.03
2017-09-18T00:19:17.408Z,3.63
2017-09-18T00:21:45.700Z,3.60
2017-09-18T00:24:13.240Z,3.40
2017-09-18T00:26:41.552Z,4.03
2017-09-18T00:29:09.039Z,2.67
2017-09-18T00:31:36.541Z,3.70
2017-09-18T00:34:04.456Z,3.47
2017-09-18T00:36:31.995Z,4.00
2017-09-18T00:38:59.484Z,3.50
2017-09-18T00:41:27.108Z,3.70
2017-09-18T00:43:55.365Z,4.80
2017-09-18T00:46:22.860Z,3.33
2017-09-18T00:48:50.385Z,3.03
2017-09-18T00:51:17.880Z,3.10
2017-09-18T00:53:45.400Z,3.27
2017-09-18T00:56:12.943Z,3.40
2017-09-18T00:58:41.227Z,4.57
2017-09-18T01:01:08.753Z,3.60
2017-09-18T01:03:36.675Z,3.00
2017-09-18T01:06:04.244Z,3.30
2017-09-18T01:08:31.777Z,3.47
2017-09-18T01:10:59.308Z,4.20
2017-09-18T01:13:27.596Z,3.10
2017-09-18T01:15:55.917Z,3.60
2017-09-18T01:18:23.412Z,2.50
2017-09-18T01:20:51.079Z,3.07
2017-09-18T01:23:18.583Z,3.70
2017-09-18T01:25:46.097Z,2.90
2017-09-18T01:28:13.629Z,2.40
2017-09-18T01:30:41.129Z,2.80
2017-09-18T01:33:09.657Z,1.90
2017-09-18T01:35:37.893Z,2.80
2017-09-18T01:38:05.404Z,2.43
2017-09-18T01:40:32.900Z,2.30
2017-09-18T01:43:01.200Z,3.57
2017-09-18T01:45:28.731Z,2.30
2017-09-18T01:47:56.640Z,2.33
2017-09-18T01:50:24.183Z,4.00
2017-09-18T01:52:51.672Z,2.97
2017-09-18T01:55:19.156Z,2.33
2017-09-18T01:57:46.704Z,2.27
2017-09-18T02:00:14.289Z,2.37
2017-09-18T02:02:42.580Z,2.20
2017-09-18T02:05:10.122Z,2.73
2017-09-18T02:07:38.431Z,2.20
2017-09-18T02:10:05.975Z,2.30
2017-09-18T02:12:34.233Z,2.07
2017-09-18T02:15:01.789Z,2.53
2017-09-18T02:17:29.317Z,4.63
2017-09-18T02:19:56.873Z,2.50
2017-09-18T02:22:25.009Z,2.00
2017-09-18T02:24:52.877Z,2.93
2017-09-18T02:27:20.428Z,3.03
2017-09-18T02:29:48.715Z,2.20
2017-09-18T02:32:16.208Z,2.20
2017-09-18T02:34:43.729Z,2.47
2017-09-18T02:37:11.269Z,2.20
2017-09-18T02:39:38.749Z,1.60
2017-09-18T02:42:06.235Z,2.00
2017-09-18T02:44:33.776Z,2.20
2017-09-18T02:47:01.676Z,3.03
2017-09-18T02:49:29.172Z,2.23
2017-09-18T02:51:56.691Z,2.80
2017-09-18T02:54:24.179Z,4.40
2017-09-18T02:56:52.476Z,2.27
2017-09-18T02:59:20.027Z,2.70
2017-09-18T03:01:48.316Z,1.90
2017-09-18T03:04:15.858Z,2.00
2017-09-18T03:06:44.108Z,2.50
2017-09-18T03:09:11.599Z,2.40
2017-09-18T03:11:39.172Z,2.50
2017-09-18T03:14:06.677Z,3.40
2017-09-18T03:16:34.168Z,2.53
2017-09-18T03:19:02.452Z,3.50
2017-09-18T03:21:29.940Z,2.50
2017-09-18T03:23:57.461Z,3.57
2017-09-18T03:26:25.780Z,2.67
2017-09-18T03:28:53.268Z,3.20
2017-09-18T03:31:20.747Z,2.73
2017-09-18T03:33:49.428Z,3.10
2017-09-18T03:36:17.731Z,3.00
2017-09-18T03:38:46.008Z,2.17
2017-09-18T03:41:13.506Z,3.73
2017-09-18T03:43:41.144Z,3.17
2017-09-18T03:46:08.633Z,4.03
2017-09-18T03:48:36.263Z,3.20
2017-09-18T03:51:03.808Z,3.30
2017-09-18T03:53:31.752Z,4.27
2017-09-18T03:55:59.256Z,4.10
2017-09-18T03:58:26.744Z,4.57
2017-09-18T04:00:54.293Z,4.10
2017-09-18T04:03:22.548Z,3.80
2017-09-18T04:05:50.117Z,4.20
2017-09-18T04:08:17.669Z,4.93
2017-09-18T04:10:45.168Z,3.40
2017-09-18T04:13:12.652Z,3.60
2017-09-18T04:15:40.176Z,3.67
2017-09-18T04:18:08.068Z,3.10
2017-09-18T04:20:36.326Z,3.37
2017-09-18T04:23:03.876Z,3.67
2017-09-18T04:25:31.368Z,4.30
2017-09-18T04:27:59.680Z,3.53
2017-09-18T04:30:27.213Z,5.10
2017-09-18T04:32:54.748Z,2.97
2017-09-18T04:35:22.284Z,3.57
2017-09-18T04:37:50.582Z,3.40
2017-09-18T04:40:18.084Z,3.20
2017-09-18T04:42:45.568Z,2.20
2017-09-18T04:45:13.673Z,3.03
2017-09-18T04:47:41.169Z,2.10
2017-09-18T04:50:08.709Z,2.90
2017-09-18T04:52:36.248Z,1.63
2017-09-18T04:55:03.746Z,3.40
2017-09-18T04:57:31.275Z,1.73
2017-09-18T04:59:58.772Z,3.00
2017-09-18T05:02:26.271Z,2.77
2017-09-18T05:04:53.788Z,2.47
2017-09-18T05:07:21.848Z,1.70
2017-09-18T05:09:49.788Z,2.47
2017-09-18T05:12:18.041Z,2.43
2017-09-18T05:14:45.566Z,2.53
2017-09-18T05:17:13.099Z,2.57
2017-09-18T05:19:40.662Z,2.57
2017-09-18T05:22:08.156Z,2.20
2017-09-18T05:24:35.657Z,2.30
2017-09-18T05:27:03.181Z,2.40
2017-09-18T05:29:30.667Z,4.03
2017-09-18T05:31:58.195Z,3.03
2017-09-18T05:34:25.981Z,5.70
2017-09-18T05:36:53.461Z,2.60
2017-09-18T05:39:21.757Z,3.00
2017-09-18T05:41:49.657Z,2.60
2017-09-18T05:44:17.153Z,5.13
2017-09-18T05:46:44.703Z,2.70
2017-09-18T05:49:12.188Z,3.43
2017-09-18T05:51:39.698Z,3.03
2017-09-18T05:54:07.628Z,3.80
2017-09-18T05:56:35.136Z,3.13
2017-09-18T05:59:02.631Z,3.50
2017-09-18T06:01:30.160Z,3.03
2017-09-18T06:03:57.659Z,4.37
2017-09-18T06:06:25.972Z,2.93
2017-09-18T06:08:53.806Z,4.43
2017-09-18T06:11:22.075Z,2.90
2017-09-18T06:13:50.597Z,2.77
2017-09-18T06:16:18.150Z,3.33
2017-09-18T06:18:45.644Z,2.33
2017-09-18T06:21:14.198Z,2.57
2017-09-18T06:23:41.689Z,3.80
2017-09-18T06:26:09.233Z,3.17
2017-09-18T06:28:36.753Z,3.50
2017-09-18T06:31:04.340Z,3.97
2017-09-18T06:33:32.098Z,2.53
2017-09-18T06:35:59.868Z,3.33
2017-09-18T06:38:27.516Z,3.50
2017-09-18T06:40:55.004Z,3.80
2017-09-18T06:43:22.501Z,2.63
2017-09-18T06:45:50.414Z,2.80
2017-09-18T06:48:17.951Z,3.17
2017-09-18T06:50:45.476Z,3.77
2017-09-18T06:53:12.964Z,3.00
2017-09-18T06:55:40.497Z,2.90
2017-09-18T06:58:08.018Z,6.10
2017-09-18T07:00:35.585Z,4.00
2017-09-18T07:03:03.129Z,3.73
2017-09-18T07:05:31.464Z,3.03
2017-09-18T07:07:58.996Z,2.67
2017-09-18T07:10:26.580Z,4.53
2017-09-18T07:12:54.132Z,2.67
2017-09-18T07:15:21.628Z,2.53
2017-09-18T07:17:49.952Z,3.40
2017-09-18T07:20:17.508Z,4.47
2017-09-18T07:22:45.049Z,2.83
2017-09-18T07:25:12.548Z,3.40
2017-09-18T07:27:40.869Z,3.53
2017-09-18T07:30:08.791Z,3.30
2017-09-18T07:32:36.288Z,3.07
2017-09-18T07:35:04.357Z,4.07
2017-09-18T07:37:31.873Z,3.47
2017-09-18T07:39:59.382Z,3.67
2017-09-18T07:42:26.933Z,3.37
2017-09-18T07:44:54.520Z,4.63
2017-09-18T07:47:22.074Z,3.93
2017-09-18T07:49:49.997Z,3.57
2017-09-18T07:52:18.261Z,2.90
2017-09-18T07:54:45.784Z,3.90
2017-09-18T07:57:13.308Z,3.70
2017-09-18T07:59:42.352Z,4.47
2017-09-18T08:02:09.847Z,3.20
2017-09-18T08:04:38.109Z,3.83
2017-09-18T08:07:06.053Z,3.33
2017-09-18T08:09:33.565Z,3.27
2017-09-18T08:12:01.926Z,4.20
2017-09-18T08:14:29.863Z,4.70
2017-09-18T08:16:57.368Z,3.70
2017-09-18T08:19:25.648Z,3.40
2017-09-18T08:21:53.180Z,3.60
2017-09-18T08:24:20.693Z,7.67
2017-09-18T08:26:48.985Z,2.90
2017-09-18T08:29:16.472Z,2.33
2017-09-18T08:31:44.000Z,2.00
2017-09-18T08:34:11.544Z,2.00
2017-09-18T08:36:39.075Z,2.90
2017-09-18T08:39:06.578Z,2.37
2017-09-18T08:41:34.131Z,2.53
2017-09-18T08:44:01.649Z,2.13
2017-09-18T08:46:29.296Z,1.90
2017-09-18T08:48:56.826Z,1.70
2017-09-18T08:51:24.373Z,2.77
2017-09-18T08:53:51.863Z,2.30
2017-09-18T08:56:20.388Z,1.90
2017-09-18T08:58:48.691Z,1.93
2017-09-18T09:01:16.239Z,1.70
2017-09-18T09:03:43.761Z,2.00
2017-09-18T09:06:11.328Z,2.20
2017-09-18T09:08:38.861Z,1.83
2017-09-18T09:11:06.754Z,2.20
2017-09-18T09:13:35.067Z,2.00
2017-09-18T09:16:02.580Z,2.00
2017-09-18T09:18:31.864Z,2.40
2017-09-18T09:21:00.184Z,2.70
2017-09-18T09:23:27.679Z,1.80
2017-09-18T09:25:55.204Z,2.53
2017-09-18T09:28:22.876Z,1.63
2017-09-18T09:30:50.424Z,2.67
2017-09-18T09:33:17.969Z,2.30
2017-09-18T09:35:45.485Z,1.23
2017-09-18T09:38:13.766Z,1.60
2017-09-18T09:40:41.296Z,2.87
2017-09-18T09:43:08.792Z,1.50
2017-09-18T09:45:36.288Z,2.03
2017-09-18T09:48:04.605Z,1.80
2017-09-18T09:50:32.102Z,1.53
2017-09-18T09:52:59.649Z,2.10
2017-09-18T09:55:27.149Z,1.50
2017-09-18T09:57:54.680Z,2.63
2017-09-18T10:00:22.211Z,3.43
2017-09-18T10:02:50.135Z,1.97
2017-09-18T10:05:17.625Z,2.40
2017-09-18T10:07:45.173Z,1.70
2017-09-18T10:10:12.664Z,1.90
2017-09-18T10:12:40.160Z,1.97
2017-09-18T10:15:08.452Z,1.27
2017-09-18T10:17:35.941Z,0.93
2017-09-18T10:20:03.468Z,1.73
2017-09-18T10:22:31.009Z,1.10
2017-09-18T10:24:58.513Z,1.60
2017-09-18T10:27:26.525Z,1.70
2017-09-18T10:29:54.053Z,1.57
2017-09-18T10:32:21.832Z,1.30
2017-09-18T10:34:49.774Z,1.60
2017-09-18T10:37:17.261Z,1.60
2017-09-18T10:39:44.812Z,1.30
2017-09-18T10:42:12.312Z,1.40
2017-09-18T10:44:40.826Z,0.97
2017-09-18T10:47:08.308Z,1.13
2017-09-18T10:49:35.796Z,1.30
2017-09-18T10:52:04.116Z,1.50
2017-09-18T10:54:32.040Z,1.20
2017-09-18T10:56:59.586Z,1.90
2017-09-18T10:59:27.097Z,2.67
2017-09-18T11:01:54.611Z,2.13
2017-09-18T11:04:22.163Z,3.13
2017-09-18T11:06:49.663Z,2.00
2017-09-18T11:09:17.282Z,2.70
2017-09-18T11:11:44.804Z,1.97
2017-09-18T11:14:12.645Z,2.33
2017-09-18T11:16:40.156Z,1.70
2017-09-18T11:19:07.673Z,2.40
2017-09-18T11:21:35.173Z,1.70
2017-09-18T11:24:03.492Z,1.90
2017-09-18T11:26:31.287Z,1.80
2017-09-18T11:28:58.889Z,1.57
2017-09-18T11:31:26.410Z,2.03
2017-09-18T11:33:53.907Z,1.90
2017-09-18T11:36:21.440Z,1.47
2017-09-18T11:38:49.337Z,1.30
2017-09-18T11:41:16.900Z,1.90
2017-09-18T11:43:45.161Z,2.00
2017-09-18T11:46:12.657Z,1.47
2017-09-18T11:48:40.192Z,2.60
2017-09-18T11:51:07.753Z,1.80
2017-09-18T11:53:36.052Z,2.30
2017-09-18T11:56:03.556Z,1.70
2017-09-18T11:58:31.060Z,1.97
2017-09-18T12:00:59.384Z,1.30
2017-09-18T12:03:26.912Z,2.07
2017-09-18T12:05:54.412Z,2.00
2017-09-18T12:08:21.956Z,1.97
2017-09-18T12:10:49.841Z,1.40
2017-09-18T12:13:17.406Z,3.23
2017-09-18T12:15:44.925Z,1.97
2017-09-18T12:18:12.460Z,1.80
2017-09-18T12:20:40.719Z,1.20
2017-09-18T12:23:08.214Z,1.77
2017-09-18T12:25:35.767Z,1.20
2017-09-18T12:28:03.273Z,3.07
2017-09-18T12:30:30.764Z,1.90
2017-09-18T12:32:59.120Z,2.80
2017-09-18T12:35:26.619Z,2.57
2017-09-18T12:37:54.395Z,2.00
2017-09-18T12:40:21.988Z,2.40
2017-09-18T12:42:49.887Z,2.40
2017-09-18T12:45:17.994Z,2.67
2017-09-18T12:47:45.494Z,2.20
2017-09-18T12:50:12.996Z,3.27
2017-09-18T12:52:40.843Z,2.10
2017-09-18T12:55:09.194Z,1.60
2017-09-18T12:57:36.700Z,3.20
2017-09-18T13:00:05.045Z,2.00
2017-09-18T13:02:32.673Z,2.43
2017-09-18T13:05:00.592Z,1.40
2017-09-18T13:07:28.091Z,1.90
2017-09-18T13:09:56.044Z,3.20
2017-09-18T13:12:23.709Z,1.73
2017-09-18T13:14:51.236Z,1.90
2017-09-18T13:17:19.491Z,1.80
2017-09-18T13:19:47.018Z,1.53
2017-09-18T13:22:14.562Z,2.80
2017-09-18T13:24:42.397Z,2.07
2017-09-18T13:27:09.904Z,2.00
2017-09-18T13:29:37.801Z,2.10
2017-09-18T13:32:05.347Z,2.20
2017-09-18T13:34:32.836Z,1.43
2017-09-18T13:37:01.093Z,2.50
2017-09-18T13:39:28.627Z,3.03
2017-09-18T13:41:56.120Z,2.33
2017-09-18T13:44:23.760Z,3.73
2017-09-18T13:46:51.652Z,2.03
2017-09-18T13:49:19.214Z,1.63
2017-09-18T13:51:48.093Z,2.10
2017-09-18T13:54:16.355Z,2.23
2017-09-18T13:56:43.897Z,1.60
2017-09-18T13:59:12.446Z,1.60
2017-09-18T14:01:39.933Z,1.70
2017-09-18T14:04:07.473Z,4.00
2017-09-18T14:06:34.992Z,1.40
2017-09-18T14:09:02.936Z,2.33
2017-09-18T14:11:31.357Z,1.57
2017-09-18T14:13:59.673Z,2.70
2017-09-18T14:16:27.552Z,2.67
2017-09-18T14:18:55.141Z,2.40
2017-09-18T14:21:23.419Z,2.90
2017-09-18T14:23:50.904Z,2.20
2017-09-18T14:26:18.461Z,2.37
2017-09-18T14:28:45.947Z,2.57
2017-09-18T14:31:13.880Z,2.33
2017-09-18T14:33:42.192Z,2.23
2017-09-18T14:36:09.710Z,1.83
2017-09-18T14:38:37.606Z,2.83
2017-09-18T14:41:05.170Z,1.60
2017-09-18T14:43:32.662Z,2.50
2017-09-18T14:46:00.604Z,12.27
2017-09-18T14:48:28.108Z,1.67
2017-09-18T14:50:55.688Z,1.30
2017-09-18T14:53:23.198Z,2.83
2017-09-18T14:55:51.451Z,2.43
2017-09-18T14:58:19.012Z,1.37
2017-09-18T15:00:46.500Z,1.50
2017-09-18T15:03:14.384Z,1.17
2017-09-18T15:05:41.913Z,1.27
2017-09-18T15:08:09.456Z,2.70
2017-09-18T15:10:36.954Z,2.63
2017-09-18T15:13:04.484Z,5.80
2017-09-18T15:15:31.996Z,2.53
2017-09-18T15:17:59.547Z,2.37
2017-09-18T15:20:27.383Z,2.10
2017-09-18T15:22:54.916Z,2.10
2017-09-18T15:25:22.440Z,3.00
2017-09-18T15:27:50.125Z,1.73
2017-09-18T15:30:17.900Z,1.87
2017-09-18T15:32:45.409Z,1.33
2017-09-18T15:35:12.936Z,1.87
2017-09-18T15:37:41.249Z,2.13
2017-09-18T15:40:09.502Z,1.37
2017-09-18T15:42:37.430Z,1.57
2017-09-18T15:45:05.347Z,1.73
2017-09-18T15:47:32.854Z,2.37
2017-09-18T15:50:00.384Z,1.90
2017-09-18T15:52:28.692Z,2.00
2017-09-18T15:54:56.944Z,1.87
2017-09-18T15:57:25.088Z,4.60
2017-09-18T15:59:52.618Z,1.97
2017-09-18T16:02:20.508Z,2.47
2017-09-18T16:04:48.840Z,2.20
2017-09-18T16:07:16.354Z,2.13
2017-09-18T16:09:43.860Z,2.27
2017-09-18T16:12:12.732Z,2.47
2017-09-18T16:14:40.229Z,2.70
2017-09-18T16:17:07.723Z,2.50
2017-09-18T16:19:36.020Z,1.60
2017-09-18T16:22:03.509Z,2.80
2017-09-18T16:24:31.044Z,1.63
2017-09-18T16:26:58.533Z,3.47
2017-09-18T16:29:26.033Z,4.10
2017-09-18T16:31:54.329Z,3.13
2017-09-18T16:34:21.825Z,3.80
2017-09-18T16:36:50.475Z,1.63
2017-09-18T16:39:17.973Z,2.27
2017-09-18T16:41:45.500Z,2.20
2017-09-18T16:44:12.993Z,1.63
2017-09-18T16:46:40.545Z,2.60
2017-09-18T16:49:08.040Z,2.20
2017-09-18T16:51:35.530Z,1.80
2017-09-18T16:54:03.059Z,2.13
2017-09-18T16:56:31.377Z,3.53
2017-09-18T16:59:00.040Z,4.40
2017-09-18T17:01:27.547Z,3.83
2017-09-18T17:03:55.465Z,4.10
2017-09-18T17:06:23.154Z,3.10
2017-09-18T17:08:50.645Z,3.23
2017-09-18T17:11:18.608Z,4.97
2017-09-18T17:13:46.117Z,4.13
2017-09-18T17:16:13.612Z,2.63
2017-09-18T17:18:41.136Z,3.80
2017-09-18T17:21:08.627Z,2.47
2017-09-18T17:23:36.683Z,3.50
2017-09-18T17:26:04.201Z,4.80
2017-09-18T17:28:32.461Z,3.30
2017-09-18T17:31:00.004Z,3.80
2017-09-18T17:33:27.545Z,4.40
2017-09-18T17:35:55.047Z,4.07
2017-09-18T17:38:22.939Z,3.63
2017-09-18T17:40:51.257Z,3.93
2017-09-18T17:43:18.755Z,4.87
2017-09-18T17:45:47.009Z,4.90
2017-09-18T17:48:14.942Z,3.90
2017-09-18T17:50:42.478Z,4.90
2017-09-18T17:53:09.961Z,4.90
2017-09-18T17:55:37.464Z,5.30
2017-09-18T17:58:04.992Z,5.00
2017-09-18T18:00:32.510Z,5.23
2017-09-18T18:03:00.797Z,5.73
2017-09-18T18:05:28.296Z,5.87
2017-09-18T18:07:56.362Z,4.97
2017-09-18T18:10:23.875Z,6.60
2017-09-18T18:12:51.803Z,5.03
2017-09-18T18:15:19.306Z,4.87
2017-09-18T18:17:47.343Z,5.60
2017-09-18T18:20:15.228Z,6.33
2017-09-18T18:22:42.712Z,7.20
2017-09-18T18:25:10.239Z,5.70
2017-09-18T18:27:38.503Z,5.70
2017-09-18T18:30:06.065Z,6.00
2017-09-18T18:32:33.574Z,5.80
2017-09-18T18:35:01.284Z,8.13
2017-09-18T18:37:28.771Z,6.10
2017-09-18T18:39:56.272Z,5.50
2017-09-18T18:42:23.800Z,6.70
2017-09-18T18:44:51.289Z,6.63
2017-09-18T18:47:18.826Z,6.97
2017-09-18T18:49:46.725Z,5.97
2017-09-18T18:52:14.628Z,8.17
2017-09-18T18:54:42.159Z,8.70
2017-09-18T18:57:09.648Z,9.27
2017-09-18T18:59:37.937Z,8.40
2017-09-18T19:02:05.487Z,7.77
2017-09-18T19:04:33.381Z,9.33
2017-09-18T19:07:00.931Z,15.27
2017-09-18T19:09:28.436Z,8.60
2017-09-18T19:11:56.061Z,8.10
2017-09-18T19:14:23.582Z,8.17
2017-09-18T19:16:51.496Z,6.37
2017-09-18T19:19:19.012Z,6.70
2017-09-18T19:21:47.286Z,7.27
2017-09-18T19:24:14.818Z,7.57
2017-09-18T19:26:42.345Z,8.20
2017-09-18T19:29:10.271Z,6.67
2017-09-18T19:31:38.284Z,5.73
2017-09-18T19:34:05.868Z,6.33
2017-09-18T19:36:33.844Z,12.97
2017-09-18T19:39:02.185Z,13.53
2017-09-18T19:41:29.772Z,8.60
2017-09-18T19:43:57.281Z,10.90
2017-09-18T19:46:25.569Z,8.73
2017-09-18T19:48:53.076Z,7.50
2017-09-18T19:51:20.580Z,6.90
2017-09-18T19:53:48.102Z,6.83
2017-09-18T19:56:15.620Z,8.43
2017-09-18T19:58:43.170Z,7.30
2017-09-18T20:01:11.068Z,7.60
2017-09-18T20:03:38.563Z,7.03
2017-09-18T20:06:06.097Z,7.90
2017-09-18T20:08:33.716Z,5.93
2017-09-18T20:11:01.242Z,6.93
2017-09-18T20:13:29.493Z,9.30
2017-09-18T20:15:57.036Z,7.27
2017-09-18T20:18:24.547Z,7.20
2017-09-18T20:20:52.808Z,7.40
2017-09-18T20:23:21.113Z,8.10
2017-09-18T20:25:49.910Z,7.60
2017-09-18T20:28:17.469Z,7.60
2017-09-18T20:30:45.368Z,6.50
2017-09-18T20:33:12.864Z,7.67
2017-09-18T20:35:41.149Z,6.40
2017-09-18T20:38:08.641Z,6.30
2017-09-18T20:40:36.215Z,6.27
2017-09-18T20:43:03.715Z,6.43
2017-09-18T20:45:31.615Z,6.53
2017-09-18T20:47:59.152Z,6.83
2017-09-18T20:50:27.508Z,9.00
2017-09-18T20:52:55.852Z,6.77
2017-09-18T20:55:23.406Z,7.33
2017-09-18T20:57:50.902Z,6.37
2017-09-18T21:00:18.402Z,9.07
2017-09-18T21:05:38.879Z,5.97
2017-09-18T21:08:07.164Z,6.70
2017-09-18T21:10:35.448Z,6.70
2017-09-18T21:13:02.956Z,7.47
2017-09-18T21:15:30.484Z,8.57
2017-09-18T21:17:58.047Z,7.27
2017-09-18T21:20:25.547Z,7.33
2017-09-18T21:22:53.049Z,7.70
2017-09-18T21:25:20.988Z,8.13
2017-09-18T21:27:48.477Z,7.73
2017-09-18T21:30:16.007Z,10.90
2017-09-18T21:32:43.512Z,8.03
2017-09-18T21:35:11.061Z,8.10
2017-09-18T21:37:38.574Z,7.53
2017-09-18T21:40:06.148Z,7.03
2017-09-18T21:42:33.676Z,5.80
2017-09-18T21:45:01.569Z,6.23
2017-09-18T21:47:29.869Z,6.67
2017-09-18T21:49:57.356Z,6.87
2017-09-18T21:52:24.836Z,6.23
2017-09-18T21:54:52.369Z,6.40
2017-09-18T21:57:20.108Z,5.77
2017-09-18T21:59:47.641Z,7.23
2017-09-18T22:02:15.161Z,6.37
2017-09-18T22:04:42.656Z,5.80
2017-09-18T22:07:10.981Z,5.77
2017-09-18T22:09:38.467Z,5.53
2017-09-18T22:12:06.607Z,6.50
2017-09-18T22:14:34.124Z,5.70
2017-09-18T22:17:01.626Z,7.13
2017-09-18T22:19:29.140Z,6.33
2017-09-18T22:21:57.429Z,6.57
2017-09-18T22:24:25.974Z,5.43
2017-09-18T22:26:53.467Z,7.00
2017-09-18T22:29:22.168Z,6.00
2017-09-18T22:31:49.676Z,6.07
2017-09-18T22:34:17.164Z,5.67
2017-09-18T22:36:45.706Z,5.17
2017-09-18T22:39:13.191Z,5.57
2017-09-18T22:41:40.687Z,6.30
2017-09-18T22:44:08.275Z,5.40
2017-09-18T22:46:35.814Z,6.47
2017-09-18T22:49:03.327Z,6.57
2017-09-18T22:51:30.816Z,7.57
2017-09-18T22:53:58.599Z,6.43
2017-09-18T22:56:26.128Z,8.03
2017-09-18T22:58:53.620Z,6.17
2017-09-18T23:01:21.208Z,8.70
2017-09-18T23:03:48.740Z,9.70
2017-09-18T23:06:16.241Z,7.60
2017-09-18T23:08:43.801Z,7.00
2017-09-18T23:11:11.295Z,6.70
2017-09-18T23:13:38.867Z,7.23
2017-09-18T23:16:06.443Z,7.50
2017-09-18T23:18:33.961Z,7.33
2017-09-18T23:21:01.788Z,8.13
2017-09-18T23:23:29.320Z,9.27
2017-09-18T23:25:56.853Z,8.00
2017-09-18T23:28:24.379Z,6.13
2017-09-18T23:30:52.712Z,5.90
2017-09-18T23:33:20.215Z,6.30
2017-09-18T23:35:47.738Z,6.50
2017-09-18T23:38:15.291Z,6.97
2017-09-18T23:40:42.784Z,6.60
2017-09-18T23:43:10.324Z,5.93
2017-09-18T23:45:37.820Z,6.07
2017-09-18T23:48:06.079Z,6.00
2017-09-18T23:50:33.605Z,6.03
2017-09-18T23:53:01.095Z,6.20
2017-09-18T23:55:28.592Z,5.73
2017-09-18T23:57:56.146Z,7.67
